Time;durP1;ratioP1;P1;durP2;ratioP2;P2;SDS_P1;SDS_P2;PMS_P1;PMS_P2;Temp;Humidity;BMP_temperature;BMP_pressure;BME280_temperature;BME280_humidity;BME280_pressure;Samples;Min_cycle;Max_cycle;Signal;HPM_P1;HPM_P2
2023/07/08 00:01:20;;;;;;;4.57;2.12;;;27.70;45.00;;;;;;2527510;54;20948;-72
2023/07/08 00:03:46;;;;;;;5.32;2.40;;;27.70;44.70;;;;;;2524658;54;21828;-69
2023/07/08 00:06:26;;;;;;;4.32;2.42;;;27.70;44.90;;;;;;2291749;55;20916;-71
2023/07/08 00:08:52;;;;;;;4.53;2.37;;;27.70;43.90;;;;;;2526661;54;21408;-71
2023/07/08 00:11:18;;;;;;;4.78;2.25;;;27.70;44.80;;;;;;2526918;54;20944;-70
2023/07/08 00:13:46;;;;;;;5.05;2.75;;;27.70;44.70;;;;;;2292547;55;20928;-70
2023/07/08 00:16:18;;;;;;;4.70;2.40;;;27.70;45.10;;;;;;2527558;54;21381;-71
2023/07/08 00:19:23;;;;;;;4.57;2.45;;;27.70;44.30;;;;;;2520216;54;21380;-70
2023/07/08 00:21:51;;;;;;;3.78;2.20;;;27.80;43.40;;;;;;2291924;55;20979;-69
2023/07/08 00:24:18;;;;;;;4.03;2.12;;;27.80;44.50;;;;;;2527156;54;20969;-69
2023/07/08 00:26:44;;;;;;;4.10;2.20;;;27.80;44.30;;;;;;2527804;54;20932;-71
2023/07/08 00:29:10;;;;;;;5.45;2.22;;;27.80;44.30;;;;;;2520988;54;21925;-71
2023/07/08 00:31:38;;;;;;;4.75;2.20;;;27.90;44.40;;;;;;2277467;55;20965;-70
2023/07/08 00:34:04;;;;;;;3.95;1.77;;;27.90;44.40;;;;;;2292371;56;21682;-70
2023/07/08 00:36:31;;;;;;;5.62;2.12;;;27.90;44.40;;;;;;2527535;54;20932;-69
2023/07/08 00:39:00;;;;;;;5.53;2.10;;;27.90;44.40;;;;;;2292301;55;20992;-70
2023/07/08 00:41:38;;;;;;;7.10;2.50;;;27.90;44.30;;;;;;2292862;56;20912;-70
2023/07/08 00:44:05;;;;;;;4.05;2.33;;;28.00;43.70;;;;;;2500392;54;21886;-71
2023/07/08 00:47:32;;;;;;;4.18;2.20;;;28.00;44.50;;;;;;2525822;54;20928;-71
2023/07/08 00:50:02;;;;;;;4.43;2.30;;;28.00;44.50;;;;;;2528047;54;20916;-69
2023/07/08 00:53:08;;;;;;;5.75;2.80;;;28.00;44.30;;;;;;2527882;54;20940;-70
2023/07/08 00:55:35;;;;;;;4.78;2.70;;;27.90;43.60;;;;;;2292777;55;20955;-70
2023/07/08 00:58:03;;;;;;;4.47;2.20;;;27.90;44.50;;;;;;2516769;54;21022;-69
2023/07/08 01:00:30;;;;;;;5.15;2.55;;;27.90;44.60;;;;;;2514122;54;20924;-72
2023/07/08 01:02:57;;;;;;;5.55;2.50;;;27.80;44.50;;;;;;2527125;54;20976;-70
2023/07/08 01:05:25;;;;;;;4.90;2.22;;;27.80;44.70;;;;;;2527215;54;21409;-71
2023/07/08 01:07:54;;;;;;;3.80;1.87;;;27.70;44.70;;;;;;2292338;55;21908;-70
2023/07/08 01:10:26;;;;;;;4.75;2.72;;;27.70;44.80;;;;;;2511468;54;22068;-70
2023/07/08 01:13:20;;;;;;;4.62;2.10;;;27.60;44.60;;;;;;2292306;55;21435;-70
2023/07/08 01:15:46;;;;;;;5.45;2.12;;;27.60;44.20;;;;;;2518523;54;20951;-70
2023/07/08 01:18:16;;;;;;;3.95;1.90;;;27.50;44.80;;;;;;2286020;55;21112;-71
2023/07/08 01:20:47;;;;;;;5.22;2.08;;;27.50;45.00;;;;;;2528241;54;21072;-70
2023/07/08 01:23:13;;;;;;;5.03;1.77;;;27.40;44.90;;;;;;2527848;54;20961;-70
2023/07/08 01:26:19;;;;;;;3.78;1.98;;;27.30;45.00;;;;;;2292012;56;20948;-72
2023/07/08 01:28:45;;;;;;;3.97;1.85;;;27.30;44.60;;;;;;2526858;54;20964;-71
2023/07/08 01:31:13;;;;;;;4.18;1.95;;;27.20;45.30;;;;;;2292580;55;21503;-70
2023/07/08 01:33:39;;;;;;;4.20;1.77;;;27.20;45.30;;;;;;2289900;55;21527;-70
2023/07/08 01:36:11;;;;;;;3.55;1.73;;;27.10;45.40;;;;;;2528299;54;20908;-69
2023/07/08 01:38:37;;;;;;;3.35;1.58;;;27.10;45.40;;;;;;2292727;55;20928;-70
2023/07/08 01:41:04;;;;;;;4.45;2.00;;;27.00;45.50;;;;;;2497515;54;21380;-69
2023/07/08 01:43:30;;;;;;;3.58;1.70;;;26.90;45.50;;;;;;2527382;54;20973;-69
2023/07/08 01:45:58;;;;;;;3.83;1.80;;;26.90;45.60;;;;;;2292725;55;20933;-70
2023/07/08 01:48:24;;;;;;;4.03;1.80;;;26.80;45.60;;;;;;2292666;55;21048;-70
2023/07/08 01:51:04;;;;;;;3.78;1.98;;;26.60;45.60;;;;;;2292307;55;20924;-70
2023/07/08 01:53:35;;;;;;;4.18;1.67;;;26.70;45.50;;;;;;2524174;54;20952;-70
2023/07/08 01:56:01;;;;;;;3.67;1.83;;;26.60;45.70;;;;;;2520614;54;20948;-69
2023/07/08 01:58:40;;;;;;;4.12;2.05;;;26.60;46.00;;;;;;2292884;55;21209;-70
2023/07/08 02:01:07;;;;;;;4.80;1.98;;;26.50;45.80;;;;;;2267144;55;20940;-70
2023/07/08 02:03:33;;;;;;;3.60;1.45;;;26.40;46.10;;;;;;2528302;54;20888;-69
2023/07/08 02:06:02;;;;;;;4.50;1.90;;;26.20;46.10;;;;;;2286578;55;20948;-68
2023/07/08 02:08:28;;;;;;;4.45;1.73;;;26.20;46.20;;;;;;2292941;55;21409;-69
2023/07/08 02:11:02;;;;;;;3.87;1.83;;;26.20;46.30;;;;;;2510882;54;21410;-69
2023/07/08 02:13:30;;;;;;;3.95;2.00;;;26.10;46.10;;;;;;2509296;54;21924;-69
2023/07/08 02:15:57;;;;;;;4.37;1.90;;;26.00;46.40;;;;;;2512853;54;20918;-70
2023/07/08 02:18:24;;;;;;;4.45;1.92;;;25.90;46.40;;;;;;2286456;55;20923;-69
2023/07/08 02:20:51;;;;;;;3.78;2.10;;;25.80;46.40;;;;;;2527976;54;20900;-70
2023/07/08 02:23:17;;;;;;;4.15;2.05;;;25.80;46.60;;;;;;2527254;54;20956;-69
2023/07/08 02:25:54;;;;;;;4.00;1.87;;;25.70;46.70;;;;;;2524170;54;21067;-71
2023/07/08 02:28:21;;;;;;;4.25;1.90;;;25.60;46.40;;;;;;2292059;55;21003;-70
2023/07/08 02:30:47;;;;;;;4.28;2.05;;;25.50;46.80;;;;;;2292062;55;20912;-70
2023/07/08 02:33:17;;;;;;;4.18;2.00;;;25.50;47.00;;;;;;2292007;55;20980;-71
2023/07/08 02:35:43;;;;;;;5.05;2.00;;;25.40;47.10;;;;;;2292817;55;20966;-70
2023/07/08 02:38:09;;;;;;;4.57;1.95;;;25.30;47.10;;;;;;2500017;54;20929;-69
2023/07/08 02:40:35;;;;;;;3.67;1.83;;;25.30;47.20;;;;;;2287154;56;20968;-68
2023/07/08 02:43:02;;;;;;;5.03;2.60;;;25.20;47.20;;;;;;2526270;54;20976;-69
2023/07/08 02:45:28;;;;;;;5.70;2.60;;;25.20;47.30;;;;;;2524286;54;21016;-69
2023/07/08 02:48:07;;;;;;;4.62;2.20;;;25.10;47.30;;;;;;2518816;54;20943;-69
2023/07/08 02:50:34;;;;;;;4.82;2.22;;;25.00;47.00;;;;;;2279499;55;21618;-69
2023/07/08 02:53:01;;;;;;;3.92;1.95;;;25.00;47.30;;;;;;2526660;54;21455;-69
2023/07/08 02:55:28;;;;;;;5.03;2.55;;;24.90;47.30;;;;;;2292439;55;21991;-70
2023/07/08 02:57:54;;;;;;;4.50;2.20;;;24.80;47.40;;;;;;2292263;55;20932;-69
2023/07/08 03:00:20;;;;;;;3.80;2.00;;;24.80;47.50;;;;;;2518884;54;20944;-70
2023/07/08 03:02:48;;;;;;;4.40;2.15;;;24.80;47.60;;;;;;2292401;55;21439;-69
2023/07/08 03:05:15;;;;;;;5.70;2.53;;;24.70;47.70;;;;;;2285544;55;21070;-70
2023/07/08 03:07:41;;;;;;;4.50;2.40;;;24.70;47.90;;;;;;2278314;55;21074;-68
2023/07/08 03:10:10;;;;;;;4.37;2.22;;;24.60;47.90;;;;;;2494581;55;21014;-68
2023/07/08 03:12:50;;;;;;;8.02;2.87;;;24.60;48.00;;;;;;2286001;55;20987;-70
2023/07/08 03:15:17;;;;;;;5.20;2.72;;;24.50;48.00;;;;;;2276376;55;21047;-69
2023/07/08 03:17:43;;;;;;;4.37;2.30;;;24.50;48.30;;;;;;2527816;54;21409;-68
2023/07/08 03:20:10;;;;;;;5.75;2.40;;;24.40;48.40;;;;;;2292498;55;20920;-70
2023/07/08 03:22:37;;;;;;;5.37;2.58;;;24.40;48.50;;;;;;2282660;56;20960;-69
2023/07/08 03:25:03;;;;;;;4.40;2.25;;;24.40;48.50;;;;;;2286869;55;20945;-69
2023/07/08 03:27:30;;;;;;;3.70;1.95;;;24.30;48.50;;;;;;2292146;56;20908;-69
2023/07/08 03:29:56;;;;;;;6.12;2.20;;;24.30;48.60;;;;;;2292343;55;21075;-70
2023/07/08 03:32:25;;;;;;;4.72;2.40;;;24.30;48.60;;;;;;2291644;55;21350;-68
2023/07/08 03:34:53;;;;;;;5.72;2.33;;;24.30;48.70;;;;;;2527417;54;21456;-70
2023/07/08 03:37:21;;;;;;;4.80;2.40;;;24.30;48.80;;;;;;2523401;54;20936;-70
2023/07/08 03:39:47;;;;;;;4.93;2.00;;;24.20;48.80;;;;;;2291704;55;20892;-69
2023/07/08 03:45:42;;;;;;;4.15;2.42;;;24.20;48.80;;;;;;2528054;54;21013;-68
2023/07/08 03:48:10;;;;;;;5.03;2.45;;;24.10;49.00;;;;;;2527943;54;21000;-69
2023/07/08 03:50:36;;;;;;;7.80;3.12;;;24.10;48.90;;;;;;2524408;54;22620;-68
2023/07/08 03:53:02;;;;;;;5.32;2.97;;;24.10;49.00;;;;;;2501133;54;21745;-69
2023/07/08 03:55:30;;;;;;;4.95;2.75;;;24.10;49.00;;;;;;2282207;55;20956;-68
2023/07/08 03:57:57;;;;;;;5.32;2.60;;;24.10;49.10;;;;;;2292081;55;21366;-69
2023/07/08 04:00:23;;;;;;;4.87;2.62;;;24.00;49.00;;;;;;2291450;55;20976;-69
2023/07/08 04:02:50;;;;;;;4.40;2.42;;;24.00;49.80;;;;;;2364386;54;1865016;-69
2023/07/08 04:05:17;;;;;;;3.90;2.22;;;24.00;49.30;;;;;;2284473;55;21080;-67
2023/07/08 04:07:43;;;;;;;4.43;2.30;;;24.00;49.40;;;;;;2274300;55;21839;-70
2023/07/08 04:10:55;;;;;;;4.50;2.40;;;24.00;49.40;;;;;;2520901;54;20986;-68
2023/07/08 04:13:21;;;;;;;5.87;2.60;;;24.00;49.00;;;;;;2513216;54;20924;-68
2023/07/08 04:15:57;;;;;;;5.25;2.55;;;24.10;49.70;;;;;;2285158;55;20985;-69
2023/07/08 04:18:23;;;;;;;6.28;2.87;;;24.10;49.90;;;;;;2516180;54;21707;-69
2023/07/08 04:20:52;;;;;;;5.90;2.40;;;24.10;50.20;;;;;;2527611;54;20960;-70
2023/07/08 04:23:22;;;;;;;5.85;2.60;;;24.20;50.50;;;;;;2292082;55;20947;-68
2023/07/08 04:26:00;;;;;;;9.25;2.83;;;24.30;50.70;;;;;;2521686;54;20928;-70
2023/07/08 04:28:26;;;;;;;6.05;2.22;;;24.30;51.40;;;;;;2524303;54;20936;-68
2023/07/08 04:30:56;;;;;;;4.65;2.33;;;24.40;51.10;;;;;;2500934;54;20973;-70
2023/07/08 04:33:22;;;;;;;5.75;2.45;;;24.50;51.30;;;;;;2291156;55;20980;-69
2023/07/08 04:35:49;;;;;;;6.25;2.33;;;24.60;51.50;;;;;;2287473;56;20913;-69
2023/07/08 04:38:23;;;;;;;4.87;2.22;;;24.70;51.60;;;;;;2527503;54;21338;-69
2023/07/08 04:41:26;;;;;;;5.85;2.50;;;24.80;51.70;;;;;;2527632;54;20896;-69
2023/07/08 04:43:57;;;;;;;6.50;2.00;;;25.00;51.70;;;;;;2289530;55;20932;-71
2023/07/08 04:46:39;;;;;;;5.05;2.28;;;25.00;51.90;;;;;;2523444;54;20932;-70
2023/07/08 04:49:06;;;;;;;6.03;2.20;;;25.10;51.90;;;;;;2528013;54;20940;-71
2023/07/08 04:51:33;;;;;;;6.97;2.17;;;25.20;52.10;;;;;;2284444;55;21009;-68
2023/07/08 04:53:59;;;;;;;6.18;2.60;;;25.30;52.10;;;;;;2510611;54;21461;-71
2023/07/08 04:56:26;;;;;;;3.47;2.08;;;25.40;52.20;;;;;;2293493;55;20908;-69
2023/07/08 04:58:52;;;;;;;4.18;1.87;;;25.40;52.20;;;;;;2507042;54;21001;-70
2023/07/08 05:01:18;;;;;;;6.37;2.55;;;25.50;52.20;;;;;;2284381;55;21665;-70
2023/07/08 05:03:45;;;;;;;6.47;2.78;;;25.60;52.30;;;;;;2283082;55;20995;-68
2023/07/08 05:06:11;;;;;;;5.32;2.30;;;25.70;52.40;;;;;;2524711;54;20972;-65
2023/07/08 05:08:38;;;;;;;4.62;2.30;;;25.70;52.40;;;;;;2524507;54;20955;-66
2023/07/08 05:11:04;;;;;;;4.93;2.28;;;25.80;52.50;;;;;;2527495;54;20924;-68
2023/07/08 05:13:37;;;;;;;5.62;2.35;;;25.80;52.50;;;;;;2290558;55;20920;-66
2023/07/08 05:16:05;;;;;;;;;;;25.90;52.60;;;;;;2292920;55;21251;-69
2023/07/08 05:18:32;;;;;;;4.62;2.40;;;26.00;52.30;;;;;;2292511;55;20064;-66
2023/07/08 05:21:01;;;;;;;4.18;2.35;;;26.00;52.50;;;;;;2526373;54;20924;-66
2023/07/08 05:23:36;;;;;;;4.85;1.87;;;26.00;52.40;;;;;;2519409;54;21459;-67
2023/07/08 05:26:03;;;;;;;4.20;1.90;;;26.10;52.30;;;;;;2289102;55;20968;-67
2023/07/08 05:28:36;;;;;;;5.37;2.15;;;26.10;52.30;;;;;;2292735;55;20924;-66
2023/07/08 05:31:02;;;;;;;3.40;1.77;;;26.10;52.10;;;;;;2284818;55;21052;-66
2023/07/08 05:33:56;;;;;;;3.22;1.70;;;26.10;52.10;;;;;;2292684;55;20971;-67
2023/07/08 05:36:22;;;;;;;4.35;1.60;;;26.10;51.70;;;;;;2292483;55;20916;-66
2023/07/08 05:38:49;;;;;;;3.00;1.30;;;26.20;52.00;;;;;;2521826;54;20880;-67
2023/07/08 05:41:17;;;;;;;3.72;1.75;;;26.20;51.90;;;;;;2273755;56;20964;-66
2023/07/08 05:44:23;;;;;;;3.75;1.65;;;26.20;51.80;;;;;;2293725;55;20976;-66
2023/07/08 05:46:49;;;;;;;3.60;1.50;;;26.20;51.40;;;;;;2288845;55;21087;-65
2023/07/08 05:49:18;;;;;;;3.50;1.50;;;26.30;51.80;;;;;;2523258;54;21894;-66
2023/07/08 05:51:46;;;;;;;2.83;1.30;;;26.20;51.70;;;;;;2502178;54;20952;-66
2023/07/08 05:54:12;;;;;;;3.17;1.33;;;26.30;51.80;;;;;;2282745;55;21019;-66
2023/07/08 05:56:40;;;;;;;4.18;1.70;;;26.20;51.70;;;;;;2292849;55;20964;-66
2023/07/08 05:59:07;;;;;;;2.95;1.35;;;26.30;51.70;;;;;;2292863;56;20964;-67
2023/07/08 06:01:33;;;;;;;2.55;1.15;;;26.30;51.70;;;;;;2292631;55;21389;-65
2023/07/08 06:04:00;;;;;;;3.33;1.25;;;26.30;51.80;;;;;;2293009;55;20961;-66
2023/07/08 06:06:26;;;;;;;3.65;1.52;;;26.30;51.80;;;;;;2288014;55;20972;-67
2023/07/08 06:08:53;;;;;;;2.58;1.15;;;26.30;51.80;;;;;;2293438;55;20940;-68
2023/07/08 06:11:19;;;;;;;2.17;1.00;;;26.30;51.70;;;;;;2527354;54;20984;-69
2023/07/08 06:13:46;;;;;;;2.50;1.20;;;26.30;51.70;;;;;;2287765;55;21704;-67
2023/07/08 06:16:28;;;;;;;2.72;1.12;;;26.30;51.80;;;;;;2288896;56;20983;-68
2023/07/08 06:19:01;;;;;;;4.57;1.10;;;26.30;51.60;;;;;;2526210;54;20951;-67
2023/07/08 06:21:29;;;;;;;3.00;1.10;;;26.30;51.80;;;;;;2497728;54;20942;-67
2023/07/08 06:24:05;;;;;;;2.72;1.10;;;26.30;51.70;;;;;;2292340;55;20976;-67
2023/07/08 06:26:31;;;;;;;2.80;1.10;;;26.30;51.50;;;;;;2294655;55;20924;-67
2023/07/08 06:28:58;;;;;;;3.08;1.30;;;26.30;51.80;;;;;;2519946;54;20959;-68
2023/07/08 06:31:24;;;;;;;3.25;1.33;;;26.30;51.70;;;;;;2292573;55;21298;-67
2023/07/08 06:33:51;;;;;;;3.08;1.12;;;26.30;51.70;;;;;;2293220;55;20944;-65
2023/07/08 06:36:19;;;;;;;2.75;1.17;;;26.30;51.70;;;;;;2527391;54;20920;-66
2023/07/08 06:38:46;;;;;;;2.60;1.15;;;26.30;51.70;;;;;;2527719;54;20924;-68
2023/07/08 06:41:12;;;;;;;3.20;1.52;;;26.30;51.80;;;;;;2510605;54;21038;-67
2023/07/08 06:43:39;;;;;;;3.37;1.20;;;26.30;51.80;;;;;;2526894;54;20948;-68
2023/07/08 06:46:06;;;;;;;2.00;0.90;;;26.30;51.80;;;;;;2527876;54;20925;-65
2023/07/08 06:48:33;;;;;;;2.83;1.05;;;26.30;51.70;;;;;;2292535;56;20968;-67
2023/07/08 06:51:00;;;;;;;2.67;1.02;;;26.30;51.80;;;;;;2527773;54;20925;-68
2023/07/08 06:53:26;;;;;;;2.25;1.00;;;26.30;51.80;;;;;;2527427;54;21799;-66
2023/07/08 06:55:54;;;;;;;3.28;1.08;;;26.40;51.80;;;;;;2527549;54;20968;-68
2023/07/08 06:58:21;;;;;;;2.70;1.12;;;26.40;51.80;;;;;;2528120;54;20956;-66
2023/07/08 07:01:15;;;;;;;2.30;1.00;;;26.40;51.80;;;;;;2523188;54;20917;-66
2023/07/08 07:03:43;;;;;;;2.40;1.00;;;26.40;51.50;;;;;;2292088;55;20939;-70
2023/07/08 07:06:10;;;;;;;2.62;1.05;;;26.50;51.90;;;;;;2508597;54;21759;-72
2023/07/08 07:08:36;;;;;;;2.70;1.20;;;26.40;52.00;;;;;;2515211;54;20975;-72
2023/07/08 07:11:02;;;;;;;1.95;0.73;;;26.50;52.00;;;;;;2287837;55;20980;-70
2023/07/08 07:13:29;;;;;;;2.90;1.00;;;26.50;51.90;;;;;;2288181;55;21056;-70
2023/07/08 07:15:55;;;;;;;2.30;1.00;;;26.50;51.90;;;;;;2501196;54;21500;-71
2023/07/08 07:18:37;;;;;;;3.08;1.30;;;26.60;52.50;;;;;;2273191;55;21759;-69
2023/07/08 07:21:04;;;;;;;2.62;1.00;;;26.70;51.70;;;;;;2527528;54;21008;-72
2023/07/08 07:23:31;;;;;;;5.07;1.37;;;26.70;52.00;;;;;;2286981;55;20945;-68
2023/07/08 07:25:57;;;;;;;1.90;0.80;;;26.70;52.50;;;;;;2293351;55;21771;-71
2023/07/08 07:28:25;;;;;;;2.85;1.05;;;26.70;51.90;;;;;;2292547;55;20920;-69
2023/07/08 07:31:16;;;;;;;2.17;0.90;;;26.80;52.10;;;;;;2502206;54;20913;-70
2023/07/08 07:33:45;;;;;;;2.92;1.00;;;26.80;51.70;;;;;;2273931;55;21781;-70
2023/07/08 07:36:14;;;;;;;3.75;1.20;;;26.80;52.10;;;;;;2528125;54;20944;-71
2023/07/08 07:38:41;;;;;;;3.72;1.10;;;26.80;52.10;;;;;;2500207;54;21013;-70
2023/07/08 07:41:10;;;;;;;2.92;1.20;;;26.90;52.20;;;;;;2528228;54;20897;-70
2023/07/08 07:43:36;;;;;;;3.33;1.33;;;26.90;52.10;;;;;;2294025;55;20940;-71
2023/07/08 07:46:05;;;;;;;4.20;1.20;;;27.00;52.10;;;;;;2273577;55;21005;-71
2023/07/08 07:48:49;;;;;;;3.25;1.48;;;27.00;52.10;;;;;;2292526;55;20997;-69
2023/07/08 07:51:15;;;;;;;3.47;1.58;;;27.00;51.80;;;;;;2292869;55;21683;-69
2023/07/08 07:53:42;;;;;;;4.85;1.45;;;27.10;52.20;;;;;;2523275;54;21512;-70
2023/07/08 07:56:09;;;;;;;3.35;1.40;;;27.10;52.30;;;;;;2528136;54;20941;-69
2023/07/08 07:58:45;;;;;;;4.05;1.60;;;27.10;52.30;;;;;;2517385;54;21818;-71
2023/07/08 08:01:13;;;;;;;4.00;1.55;;;27.10;52.30;;;;;;2527718;54;21115;-72
2023/07/08 08:03:54;;;;;;;3.40;1.42;;;27.20;52.50;;;;;;2522133;54;20951;-69
2023/07/08 08:06:20;;;;;;;2.80;1.17;;;27.20;52.30;;;;;;2524797;54;21024;-69
2023/07/08 08:08:47;;;;;;;4.87;1.52;;;27.20;52.60;;;;;;2521748;54;20908;-70
2023/07/08 08:11:13;;;;;;;3.05;1.40;;;27.30;52.70;;;;;;2292722;55;20947;-72
2023/07/08 08:13:40;;;;;;;3.60;1.40;;;27.30;52.70;;;;;;2292620;56;20921;-69
2023/07/08 08:16:06;;;;;;;3.90;1.52;;;27.40;52.80;;;;;;2292367;55;20917;-69
2023/07/08 08:18:32;;;;;;;3.03;1.40;;;27.40;52.80;;;;;;2504600;54;20966;-69
2023/07/08 08:24:27;;;;;;;2.35;1.05;;;27.60;52.60;;;;;;2527048;54;20952;-68
2023/07/08 08:26:54;;;;;;;2.53;1.02;;;27.60;52.80;;;;;;2521406;54;21023;-68
2023/07/08 08:29:20;;;;;;;2.70;1.12;;;27.70;52.80;;;;;;2527206;54;21740;-69
2023/07/08 08:31:50;;;;;;;2.85;1.33;;;27.70;52.70;;;;;;2291824;55;20936;-68
2023/07/08 08:34:16;;;;;;;3.12;1.20;;;27.80;52.80;;;;;;2287415;56;22057;-69
2023/07/08 08:36:43;;;;;;;3.10;1.40;;;27.80;52.70;;;;;;2527075;54;21004;-71
2023/07/08 08:39:10;;;;;;;3.80;1.40;;;27.90;52.70;;;;;;2500325;54;20896;-71
2023/07/08 08:41:38;;;;;;;2.90;1.30;;;28.00;52.70;;;;;;2289135;55;21815;-70
2023/07/08 08:44:05;;;;;;;2.87;1.20;;;28.00;52.70;;;;;;2524543;54;21020;-70
2023/07/08 08:48:07;;;;;;;3.50;1.35;;;28.10;52.70;;;;;;2520656;54;21774;-71
2023/07/08 08:50:47;;;;;;;2.80;1.20;;;28.10;52.50;;;;;;2521019;54;20932;-70
2023/07/08 08:53:15;;;;;;;3.55;1.40;;;28.30;52.10;;;;;;2292337;55;21449;-72
2023/07/08 08:55:42;;;;;;;2.78;1.05;;;28.30;52.50;;;;;;2292701;56;20984;-70
2023/07/08 08:58:37;;;;;;;2.47;1.00;;;28.30;52.30;;;;;;2521130;54;20935;-71
2023/07/08 09:01:07;;;;;;;3.35;1.50;;;28.40;51.50;;;;;;2515889;54;21611;-69
2023/07/08 09:03:49;;;;;;;2.65;1.05;;;28.50;52.10;;;;;;2292012;55;20952;-70
2023/07/08 09:10:50;;;;;;;3.20;1.20;;;28.60;51.80;;;;;;2527763;54;20913;-71
2023/07/08 09:13:31;;;;;;;3.20;1.48;;;28.60;52.00;;;;;;2289403;55;21094;-68
2023/07/08 09:17:32;;;;;;;3.10;1.40;;;28.60;52.20;;;;;;2292281;56;20940;-67
2023/07/08 09:20:22;;;;;;;2.70;1.25;;;28.80;52.10;;;;;;2292008;55;20924;-71
2023/07/08 09:23:25;;;;;;;3.78;1.55;;;28.90;52.50;;;;;;2295471;55;20900;-69
2023/07/08 09:25:55;;;;;;;;;;;28.90;52.20;;;;;;2531248;54;20970;-69
2023/07/08 09:28:51;;;;;;;2.80;1.30;;;29.00;52.30;;;;;;2527089;54;20076;-69
2023/07/08 09:31:26;;;;;;;3.80;1.55;;;29.10;52.00;;;;;;2515424;54;20953;-68
2023/07/08 09:34:13;;;;;;;3.28;1.20;;;29.20;51.80;;;;;;2277003;55;20931;-72
2023/07/08 09:36:42;;;;;;;3.05;1.40;;;29.20;51.40;;;;;;2284516;56;20940;-70
2023/07/08 09:39:18;;;;;;;2.92;1.33;;;29.30;52.00;;;;;;2526931;54;20992;-70
2023/07/08 09:41:46;;;;;;;3.80;1.30;;;29.40;51.40;;;;;;2281519;55;21431;-70
2023/07/08 09:44:25;;;;;;;2.85;1.15;;;29.40;51.90;;;;;;2519849;54;20901;-69
2023/07/08 09:46:53;;;;;;;2.60;1.15;;;29.60;51.40;;;;;;2501139;54;20970;-71
2023/07/08 09:49:50;;;;;;;2.83;1.30;;;29.60;51.30;;;;;;2527493;54;22265;-70
2023/07/08 09:52:17;;;;;;;2.33;1.00;;;29.80;50.10;;;;;;2522068;54;20913;-69
2023/07/08 09:54:45;;;;;;;2.37;1.12;;;29.80;51.10;;;;;;2523773;54;20936;-71
2023/07/08 09:57:29;;;;;;;4.93;1.37;;;29.80;50.90;;;;;;2521696;54;21031;-69
2023/07/08 10:00:02;;;;;;;2.30;1.08;;;29.90;49.80;;;;;;2292233;55;21493;-72
2023/07/08 10:06:00;;;;;;;2.62;0.95;;;30.10;49.10;;;;;;2527857;54;21504;-72
2023/07/08 10:08:30;;;;;;;2.60;1.20;;;30.20;49.90;;;;;;2289191;55;20984;-71
2023/07/08 10:11:04;;;;;;;2.87;1.12;;;30.10;49.50;;;;;;2273999;55;20965;-69
2023/07/08 10:13:54;;;;;;;2.35;1.00;;;30.30;49.40;;;;;;2271484;55;21030;-69
2023/07/08 10:16:31;;;;;;;2.00;0.80;;;30.30;48.60;;;;;;2287068;55;20960;-69
2023/07/08 10:19:52;;;;;;;2.12;1.10;;;30.40;49.10;;;;;;2525621;54;21303;-70
2023/07/08 10:22:50;;;;;;;2.83;0.93;;;30.40;47.90;;;;;;2289669;55;20944;-72
2023/07/08 10:26:10;;;;;;;2.67;0.90;;;30.50;48.00;;;;;;2293102;55;21831;-72
2023/07/08 10:31:54;;;;;;;2.42;1.10;;;30.60;48.70;;;;;;2288529;55;20952;-71
2023/07/08 10:35:24;;;;;;;2.40;0.98;;;30.70;48.30;;;;;;2527874;54;20913;-70
2023/07/08 10:39:51;;;;;;;4.55;1.08;;;30.80;48.10;;;;;;2527340;54;21754;-70
2023/07/08 10:45:01;;;;;;;2.37;0.98;;;30.90;47.80;;;;;;2292610;55;20972;-69
2023/07/08 10:48:20;;;;;;;3.58;1.10;;;31.00;48.10;;;;;;2292039;55;21008;-70
2023/07/08 10:51:58;;;;;;;2.58;1.00;;;31.10;48.40;;;;;;2292763;56;21342;-71
2023/07/08 10:54:46;;;;;;;2.00;0.90;;;31.10;47.60;;;;;;2527943;54;20924;-71
2023/07/08 10:57:26;;;;;;;2.28;1.00;;;31.20;47.70;;;;;;2275939;55;20977;-69
2023/07/08 11:00:03;;;;;;;2.45;1.05;;;31.30;47.70;;;;;;2522746;54;21021;-71
2023/07/08 11:04:34;;;;;;;2.42;1.05;;;31.30;48.10;;;;;;2277935;55;20936;-69
2023/07/08 11:07:12;;;;;;;1.90;0.88;;;31.40;47.50;;;;;;2528193;54;20992;-69
2023/07/08 11:09:50;;;;;;;2.40;0.93;;;31.50;48.10;;;;;;2528176;54;21452;-69
2023/07/08 11:12:31;;;;;;;2.35;0.95;;;31.60;47.30;;;;;;2285684;55;21503;-68
2023/07/08 11:15:23;;;;;;;3.05;1.20;;;31.70;47.50;;;;;;2515117;54;21464;-70
2023/07/08 11:17:55;;;;;;;;;;;31.70;47.00;;;;;;2532160;54;20940;-70
2023/07/08 11:20:34;;;;;;;2.10;0.90;;;31.80;47.40;;;;;;2289464;55;20048;-69
2023/07/08 11:23:39;;;;;;;3.42;1.20;;;31.80;47.90;;;;;;2290369;55;20936;-70
2023/07/08 11:32:57;;;;;;;3.35;1.25;;;31.90;47.00;;;;;;2528083;54;20940;-68
2023/07/08 11:35:43;;;;;;;;;;;32.10;47.50;;;;;;2526556;54;21649;-70
2023/07/08 11:38:17;;;;;;;2.20;0.82;;;32.10;47.50;;;;;;2278746;54;20076;-69
2023/07/08 11:41:08;;;;;;;2.40;1.02;;;32.20;47.80;;;;;;2527594;54;21432;-69
2023/07/08 11:43:40;;;;;;;3.13;1.43;;;32.20;46.90;;;;;;2523137;54;20976;-69
2023/07/08 11:46:06;;;;;;;2.85;1.00;;;32.30;47.40;;;;;;2520269;54;21013;-71
2023/07/08 11:48:52;;;;;;;2.95;1.40;;;32.30;47.20;;;;;;2267771;55;21003;-69
2023/07/08 11:51:23;;;;;;;4.72;1.67;;;32.30;45.80;;;;;;2288866;55;20932;-69
2023/07/08 11:54:19;;;;;;;2.53;1.20;;;32.40;46.60;;;;;;2521932;54;21860;-68
2023/07/08 11:57:04;;;;;;;3.67;1.58;;;32.40;45.40;;;;;;2292244;55;20980;-71
2023/07/08 11:59:36;;;;;;;3.65;1.37;;;32.50;45.60;;;;;;2292685;55;20919;-72
2023/07/08 12:02:08;;;;;;;4.20;1.52;;;32.40;46.30;;;;;;2293014;55;21394;-69
2023/07/08 12:07:46;;;;;;;2.30;1.10;;;32.50;45.70;;;;;;2281869;54;20137;-69
2023/07/08 12:13:23;;;;;;;2.40;1.17;;;32.60;45.90;;;;;;2522937;54;20984;-70
2023/07/08 12:15:49;;;;;;;2.28;1.08;;;32.70;45.90;;;;;;2522610;54;20924;-69
2023/07/08 12:18:34;;;;;;;3.65;1.12;;;32.70;47.00;;;;;;2514510;54;21826;-69
2023/07/08 12:21:01;;;;;;;2.60;1.00;;;32.80;45.40;;;;;;2281260;55;21753;-70
2023/07/08 12:23:27;;;;;;;2.40;1.20;;;32.80;46.20;;;;;;2292896;55;20975;-72
2023/07/08 12:25:54;;;;;;;2.83;1.33;;;32.90;46.80;;;;;;2292597;55;20932;-68
2023/07/08 12:28:50;;;;;;;2.50;1.20;;;33.00;46.10;;;;;;2509990;54;21146;-69
2023/07/08 12:31:18;;;;;;;3.00;1.40;;;33.00;45.30;;;;;;2290251;55;20916;-70
2023/07/08 12:33:44;;;;;;;3.15;1.40;;;33.10;46.00;;;;;;2292084;55;21039;-69
2023/07/08 12:36:27;;;;;;;3.40;1.40;;;33.10;46.00;;;;;;2284686;55;21429;-71
2023/07/08 12:38:58;;;;;;;2.95;1.05;;;33.20;45.70;;;;;;2275871;56;21508;-68
2023/07/08 12:41:36;;;;;;;3.60;1.52;;;33.30;45.40;;;;;;2288423;56;21047;-73
2023/07/08 12:44:06;;;;;;;3.28;1.30;;;33.30;44.80;;;;;;2528453;54;21460;-72
2023/07/08 12:46:36;;;;;;;3.28;1.37;;;33.40;45.40;;;;;;2522346;54;21052;-70
2023/07/08 12:49:02;;;;;;;2.40;1.10;;;33.50;45.10;;;;;;2295932;55;21866;-68
2023/07/08 12:51:29;;;;;;;3.17;1.40;;;33.50;45.20;;;;;;2291918;55;21026;-71
2023/07/08 12:54:09;;;;;;;6.20;1.52;;;33.60;44.90;;;;;;2499911;54;20980;-70
2023/07/08 12:56:35;;;;;;;3.58;1.45;;;33.60;44.10;;;;;;2293446;55;21039;-68
2023/07/08 12:59:01;;;;;;;4.05;1.95;;;33.60;44.60;;;;;;2495308;55;20946;-71
2023/07/08 13:01:29;;;;;;;2.87;1.25;;;33.70;45.00;;;;;;2285167;55;20966;-67
2023/07/08 13:03:59;;;;;;;3.17;1.55;;;33.80;44.50;;;;;;2500298;54;20984;-68
2023/07/08 13:06:27;;;;;;;4.43;1.70;;;33.80;44.30;;;;;;2291335;55;20962;-69
2023/07/08 13:08:56;;;;;;;3.00;1.17;;;33.90;44.20;;;;;;2274288;55;20967;-69
2023/07/08 13:11:22;;;;;;;3.05;1.50;;;33.90;44.20;;;;;;2292568;55;20980;-69
2023/07/08 13:13:55;;;;;;;4.07;1.67;;;34.00;44.00;;;;;;2292276;55;20947;-69
2023/07/08 13:16:24;;;;;;;3.55;1.70;;;34.00;43.00;;;;;;2293016;55;21116;-69
2023/07/08 13:18:50;;;;;;;4.28;1.65;;;34.00;43.20;;;;;;2291831;55;20916;-70
2023/07/08 13:21:17;;;;;;;3.40;1.62;;;34.10;43.20;;;;;;2522432;54;21769;-70
2023/07/08 13:23:43;;;;;;;5.05;1.70;;;34.10;42.90;;;;;;2292724;55;20980;-70
2023/07/08 13:26:21;;;;;;;3.92;1.58;;;34.10;42.80;;;;;;2279447;55;21017;-70
2023/07/08 13:28:58;;;;;;;3.37;1.40;;;34.10;41.70;;;;;;2281046;55;21006;-73
2023/07/08 13:31:32;;;;;;;4.00;1.55;;;34.10;43.10;;;;;;2286012;55;20956;-71
2023/07/08 13:34:09;;;;;;;3.20;1.42;;;34.20;41.80;;;;;;2528239;54;21028;-70
2023/07/08 13:36:37;;;;;;;2.72;1.33;;;34.20;41.50;;;;;;2275011;55;21823;-69
2023/07/08 13:39:18;;;;;;;3.47;1.58;;;34.20;42.30;;;;;;2292965;55;20992;-69
2023/07/08 13:41:44;;;;;;;4.30;1.60;;;34.30;41.60;;;;;;2291782;55;20932;-68
2023/07/08 13:44:10;;;;;;;3.45;1.70;;;34.30;42.40;;;;;;2292082;55;20948;-67
2023/07/08 13:46:59;;;;;;;3.00;1.20;;;34.30;42.20;;;;;;2292563;55;20960;-70
2023/07/08 13:49:29;;;;;;;2.80;1.40;;;34.40;41.60;;;;;;2526593;54;20959;-70
2023/07/08 13:53:50;;;;;;;3.78;1.80;;;34.40;42.30;;;;;;2293436;55;20936;-71
2023/07/08 13:56:27;;;;;;;3.00;1.48;;;34.50;41.60;;;;;;2518494;54;20982;-69
2023/07/08 13:59:01;;;;;;;2.67;1.27;;;34.60;41.50;;;;;;2278382;55;20917;-70